sensor_id;sensor_type;location;lat;lon;timestamp;temperature;humidity
22940;DHT22;11636;52.086;5.090;2024-02-04T00:02:24;10.00;99.90
22940;DHT22;11636;52.086;5.090;2024-02-04T00:04:52;10.00;99.90
22940;DHT22;11636;52.086;5.090;2024-02-04T00:07:25;10.00;99.90
22940;DHT22;11636;52.086;5.090;2024-02-04T00:09:52;10.00;99.90
22940;DHT22;11636;52.086;5.090;2024-02-04T00:12:26;10.10;99.90
22940;DHT22;11636;52.086;5.090;2024-02-04T00:14:53;10.00;99.90
22940;DHT22;11636;52.086;5.090;2024-02-04T00:17:26;10.10;99.90
22940;DHT22;11636;52.086;5.090;2024-02-04T00:19:57;10.20;99.90
22940;DHT22;11636;52.086;5.090;2024-02-04T00:22:23;10.20;99.90
22940;DHT22;11636;52.086;5.090;2024-02-04T00:24:56;10.20;99.90
22940;DHT22;11636;52.086;5.090;2024-02-04T00:27:28;10.20;99.90
22940;DHT22;11636;52.086;5.090;2024-02-04T00:30:01;10.20;99.90
22940;DHT22;11636;52.086;5.090;2024-02-04T00:32:28;10.20;99.90
22940;DHT22;11636;52.086;5.090;2024-02-04T00:35:02;10.20;99.90
22940;DHT22;11636;52.086;5.090;2024-02-04T00:37:29;10.20;99.90
22940;DHT22;11636;52.086;5.090;2024-02-04T00:40:02;10.20;99.90
22940;DHT22;11636;52.086;5.090;2024-02-04T00:42:30;10.20;99.90
22940;DHT22;11636;52.086;5.090;2024-02-04T00:45:04;10.20;99.90
22940;DHT22;11636;52.086;5.090;2024-02-04T00:47:37;10.20;99.90
22940;DHT22;11636;52.086;5.090;2024-02-04T00:50:05;10.10;99.90
22940;DHT22;11636;52.086;5.090;2024-02-04T00:52:39;10.10;99.90
22940;DHT22;11636;52.086;5.090;2024-02-04T00:55:06;10.10;99.90
22940;DHT22;11636;52.086;5.090;2024-02-04T00:57:39;10.10;99.90
22940;DHT22;11636;52.086;5.090;2024-02-04T01:00:07;10.10;99.90
22940;DHT22;11636;52.086;5.090;2024-02-04T01:02:40;10.10;99.90
22940;DHT22;11636;52.086;5.090;2024-02-04T01:05:08;10.10;99.90
22940;DHT22;11636;52.086;5.090;2024-02-04T01:07:40;10.00;99.90
22940;DHT22;11636;52.086;5.090;2024-02-04T01:10:08;10.00;99.90
22940;DHT22;11636;52.086;5.090;2024-02-04T01:12:41;10.00;99.90
22940;DHT22;11636;52.086;5.090;2024-02-04T01:15:14;10.00;99.90
22940;DHT22;11636;52.086;5.090;2024-02-04T01:17:41;10.00;99.90
22940;DHT22;11636;52.086;5.090;2024-02-04T01:20:08;9.90;99.90
22940;DHT22;11636;52.086;5.090;2024-02-04T01:22:42;9.90;99.90
22940;DHT22;11636;52.086;5.090;2024-02-04T01:25:10;9.90;99.90
22940;DHT22;11636;52.086;5.090;2024-02-04T01:27:42;10.00;99.90
22940;DHT22;11636;52.086;5.090;2024-02-04T01:30:09;9.90;99.90
22940;DHT22;11636;52.086;5.090;2024-02-04T01:32:42;9.90;99.90
22940;DHT22;11636;52.086;5.090;2024-02-04T01:35:09;9.90;99.90
22940;DHT22;11636;52.086;5.090;2024-02-04T01:37:49;9.90;99.90
22940;DHT22;11636;52.086;5.090;2024-02-04T01:40:16;9.90;99.90
22940;DHT22;11636;52.086;5.090;2024-02-04T01:42:43;9.90;99.90
22940;DHT22;11636;52.086;5.090;2024-02-04T01:45:17;9.90;99.90
22940;DHT22;11636;52.086;5.090;2024-02-04T01:47:50;9.90;99.90
22940;DHT22;11636;52.086;5.090;2024-02-04T01:50:24;9.90;99.90
22940;DHT22;11636;52.086;5.090;2024-02-04T01:52:58;9.90;99.90
22940;DHT22;11636;52.086;5.090;2024-02-04T01:55:25;9.90;99.90
22940;DHT22;11636;52.086;5.090;2024-02-04T01:57:52;9.90;99.90
22940;DHT22;11636;52.086;5.090;2024-02-04T02:00:26;9.90;99.90
22940;DHT22;11636;52.086;5.090;2024-02-04T02:02:53;10.00;99.90
22940;DHT22;11636;52.086;5.090;2024-02-04T02:05:21;10.00;99.90
22940;DHT22;11636;52.086;5.090;2024-02-04T02:07:54;9.90;99.90
22940;DHT22;11636;52.086;5.090;2024-02-04T02:10:28;9.90;99.90
22940;DHT22;11636;52.086;5.090;2024-02-04T02:13:17;9.90;99.90
22940;DHT22;11636;52.086;5.090;2024-02-04T02:15:51;9.80;99.90
22940;DHT22;11636;52.086;5.090;2024-02-04T02:18:40;9.80;99.90
22940;DHT22;11636;52.086;5.090;2024-02-04T02:26:42;9.80;99.90
22940;DHT22;11636;52.086;5.090;2024-02-04T02:29:17;9.80;99.90
22940;DHT22;11636;52.086;5.090;2024-02-04T02:31:44;9.80;99.90
22940;DHT22;11636;52.086;5.090;2024-02-04T02:34:18;9.80;99.90
22940;DHT22;11636;52.086;5.090;2024-02-04T02:39:56;9.80;99.90
22940;DHT22;11636;52.086;5.090;2024-02-04T02:42:25;9.70;99.90
22940;DHT22;11636;52.086;5.090;2024-02-04T02:44:59;9.70;99.90
22940;DHT22;11636;52.086;5.090;2024-02-04T02:47:33;9.70;99.90
22940;DHT22;11636;52.086;5.090;2024-02-04T02:50:08;9.70;99.90
22940;DHT22;11636;52.086;5.090;2024-02-04T02:52:35;9.60;99.90
22940;DHT22;11636;52.086;5.090;2024-02-04T02:55:02;9.60;99.90
22940;DHT22;11636;52.086;5.090;2024-02-04T02:57:36;9.60;99.90
22940;DHT22;11636;52.086;5.090;2024-02-04T03:00:03;9.60;99.90
22940;DHT22;11636;52.086;5.090;2024-02-04T03:02:39;9.50;99.90
22940;DHT22;11636;52.086;5.090;2024-02-04T03:05:06;9.60;99.90
22940;DHT22;11636;52.086;5.090;2024-02-04T03:07:32;9.50;99.90
22940;DHT22;11636;52.086;5.090;2024-02-04T03:10:06;9.50;99.90
22940;DHT22;11636;52.086;5.090;2024-02-04T03:12:33;9.50;99.90
22940;DHT22;11636;52.086;5.090;2024-02-04T03:15:06;9.50;99.90
22940;DHT22;11636;52.086;5.090;2024-02-04T03:17:33;9.50;99.90
22940;DHT22;11636;52.086;5.090;2024-02-04T03:20:00;9.50;99.90
22940;DHT22;11636;52.086;5.090;2024-02-04T03:22:34;9.50;99.90
22940;DHT22;11636;52.086;5.090;2024-02-04T03:25:01;9.50;99.90
22940;DHT22;11636;52.086;5.090;2024-02-04T03:27:34;9.50;99.90
22940;DHT22;11636;52.086;5.090;2024-02-04T03:30:00;9.50;99.90
22940;DHT22;11636;52.086;5.090;2024-02-04T03:32:35;9.50;99.90
22940;DHT22;11636;52.086;5.090;2024-02-04T03:35:02;9.50;99.90
22940;DHT22;11636;52.086;5.090;2024-02-04T03:37:36;9.50;99.90
22940;DHT22;11636;52.086;5.090;2024-02-04T03:40:02;9.50;99.90
22940;DHT22;11636;52.086;5.090;2024-02-04T03:42:30;9.40;99.90
22940;DHT22;11636;52.086;5.090;2024-02-04T03:45:05;9.40;99.90
22940;DHT22;11636;52.086;5.090;2024-02-04T03:47:31;9.40;99.90
22940;DHT22;11636;52.086;5.090;2024-02-04T03:50:06;9.40;99.90
22940;DHT22;11636;52.086;5.090;2024-02-04T03:52:40;9.40;99.90
22940;DHT22;11636;52.086;5.090;2024-02-04T03:55:07;9.40;99.90
22940;DHT22;11636;52.086;5.090;2024-02-04T03:57:34;9.40;99.90
22940;DHT22;11636;52.086;5.090;2024-02-04T04:00:08;9.40;99.90
22940;DHT22;11636;52.086;5.090;2024-02-04T04:02:35;9.40;99.90
22940;DHT22;11636;52.086;5.090;2024-02-04T04:05:12;9.40;99.90
22940;DHT22;11636;52.086;5.090;2024-02-04T04:07:46;9.30;99.90
22940;DHT22;11636;52.086;5.090;2024-02-04T04:10:12;9.30;99.90
22940;DHT22;11636;52.086;5.090;2024-02-04T04:12:39;9.20;99.90
22940;DHT22;11636;52.086;5.090;2024-02-04T04:15:13;9.20;99.90
22940;DHT22;11636;52.086;5.090;2024-02-04T04:17:46;9.10;99.90
22940;DHT22;11636;52.086;5.090;2024-02-04T04:20:13;9.10;99.90
22940;DHT22;11636;52.086;5.090;2024-02-04T04:22:39;9.00;99.90
22940;DHT22;11636;52.086;5.090;2024-02-04T04:25:14;9.00;99.90
22940;DHT22;11636;52.086;5.090;2024-02-04T04:27:48;9.00;99.90
22940;DHT22;11636;52.086;5.090;2024-02-04T04:30:15;9.00;99.90
22940;DHT22;11636;52.086;5.090;2024-02-04T04:32:48;9.00;99.90
22940;DHT22;11636;52.086;5.090;2024-02-04T04:35:15;9.00;99.90
22940;DHT22;11636;52.086;5.090;2024-02-04T04:37:48;9.00;99.90
22940;DHT22;11636;52.086;5.090;2024-02-04T04:40:21;9.00;99.90
22940;DHT22;11636;52.086;5.090;2024-02-04T04:42:47;9.00;99.90
22940;DHT22;11636;52.086;5.090;2024-02-04T04:45:14;9.00;99.90
22940;DHT22;11636;52.086;5.090;2024-02-04T04:47:48;9.10;99.90
22940;DHT22;11636;52.086;5.090;2024-02-04T04:50:22;9.10;99.90
22940;DHT22;11636;52.086;5.090;2024-02-04T04:52:49;9.00;99.90
22940;DHT22;11636;52.086;5.090;2024-02-04T04:55:24;9.10;99.90
22940;DHT22;11636;52.086;5.090;2024-02-04T04:57:51;9.10;99.90
22940;DHT22;11636;52.086;5.090;2024-02-04T05:00:19;9.10;99.90
22940;DHT22;11636;52.086;5.090;2024-02-04T05:02:53;9.10;99.90
22940;DHT22;11636;52.086;5.090;2024-02-04T05:05:20;9.10;99.90
22940;DHT22;11636;52.086;5.090;2024-02-04T05:07:46;9.10;99.90
22940;DHT22;11636;52.086;5.090;2024-02-04T05:10:20;9.10;99.90
22940;DHT22;11636;52.086;5.090;2024-02-04T05:12:47;9.10;99.90
22940;DHT22;11636;52.086;5.090;2024-02-04T05:15:20;9.10;99.90
22940;DHT22;11636;52.086;5.090;2024-02-04T05:17:54;9.10;99.90
22940;DHT22;11636;52.086;5.090;2024-02-04T05:20:27;9.10;99.90
22940;DHT22;11636;52.086;5.090;2024-02-04T05:23:02;9.10;99.90
22940;DHT22;11636;52.086;5.090;2024-02-04T05:25:35;9.10;99.90
22940;DHT22;11636;52.086;5.090;2024-02-04T05:28:02;9.10;99.90
22940;DHT22;11636;52.086;5.090;2024-02-04T05:30:42;9.10;99.90
22940;DHT22;11636;52.086;5.090;2024-02-04T05:33:08;9.10;99.90
22940;DHT22;11636;52.086;5.090;2024-02-04T05:35:42;9.10;99.90
22940;DHT22;11636;52.086;5.090;2024-02-04T05:38:09;9.10;99.90
22940;DHT22;11636;52.086;5.090;2024-02-04T05:40:43;9.10;99.90
22940;DHT22;11636;52.086;5.090;2024-02-04T05:43:16;9.10;99.90
22940;DHT22;11636;52.086;5.090;2024-02-04T05:45:43;9.10;99.90
22940;DHT22;11636;52.086;5.090;2024-02-04T05:48:16;9.10;99.90
22940;DHT22;11636;52.086;5.090;2024-02-04T05:50:43;9.10;99.90
22940;DHT22;11636;52.086;5.090;2024-02-04T05:53:10;9.10;99.90
22940;DHT22;11636;52.086;5.090;2024-02-04T05:55:43;9.20;99.90
22940;DHT22;11636;52.086;5.090;2024-02-04T05:58:10;9.20;99.90
22940;DHT22;11636;52.086;5.090;2024-02-04T06:00:44;9.20;99.90
22940;DHT22;11636;52.086;5.090;2024-02-04T06:03:17;9.20;99.90
22940;DHT22;11636;52.086;5.090;2024-02-04T06:05:44;9.20;99.90
22940;DHT22;11636;52.086;5.090;2024-02-04T06:08:11;9.20;99.90
22940;DHT22;11636;52.086;5.090;2024-02-04T06:10:44;9.30;99.90
22940;DHT22;11636;52.086;5.090;2024-02-04T06:13:11;9.30;99.90
22940;DHT22;11636;52.086;5.090;2024-02-04T06:15:37;9.30;99.90
22940;DHT22;11636;52.086;5.090;2024-02-04T06:18:11;9.30;99.90
22940;DHT22;11636;52.086;5.090;2024-02-04T06:20:38;9.30;99.90
22940;DHT22;11636;52.086;5.090;2024-02-04T06:23:11;9.30;99.90
22940;DHT22;11636;52.086;5.090;2024-02-04T06:25:44;9.30;99.90
22940;DHT22;11636;52.086;5.090;2024-02-04T06:28:11;9.30;99.90
22940;DHT22;11636;52.086;5.090;2024-02-04T06:30:44;9.30;99.90
22940;DHT22;11636;52.086;5.090;2024-02-04T06:33:17;9.30;99.90
22940;DHT22;11636;52.086;5.090;2024-02-04T06:35:44;9.30;99.90
22940;DHT22;11636;52.086;5.090;2024-02-04T06:38:17;9.30;99.90
22940;DHT22;11636;52.086;5.090;2024-02-04T06:40:44;9.30;99.90
22940;DHT22;11636;52.086;5.090;2024-02-04T06:43:11;9.30;99.90
22940;DHT22;11636;52.086;5.090;2024-02-04T06:45:44;9.30;99.90
22940;DHT22;11636;52.086;5.090;2024-02-04T06:48:12;9.30;99.90
22940;DHT22;11636;52.086;5.090;2024-02-04T06:50:46;9.30;99.90
22940;DHT22;11636;52.086;5.090;2024-02-04T06:53:14;9.30;99.90
22940;DHT22;11636;52.086;5.090;2024-02-04T06:55:48;9.30;99.90
22940;DHT22;11636;52.086;5.090;2024-02-04T06:58:15;9.30;99.90
22940;DHT22;11636;52.086;5.090;2024-02-04T07:00:41;9.30;99.90
22940;DHT22;11636;52.086;5.090;2024-02-04T07:03:15;9.30;99.90
22940;DHT22;11636;52.086;5.090;2024-02-04T07:05:42;9.30;99.90
22940;DHT22;11636;52.086;5.090;2024-02-04T07:08:13;9.40;99.90
22940;DHT22;11636;52.086;5.090;2024-02-04T07:10:47;9.40;99.90
22940;DHT22;11636;52.086;5.090;2024-02-04T07:13:24;9.40;99.90
22940;DHT22;11636;52.086;5.090;2024-02-04T07:15:51;9.40;99.90
22940;DHT22;11636;52.086;5.090;2024-02-04T07:18:24;9.40;99.90
22940;DHT22;11636;52.086;5.090;2024-02-04T07:20:51;9.50;99.90
22940;DHT22;11636;52.086;5.090;2024-02-04T07:23:18;9.50;99.90
22940;DHT22;11636;52.086;5.090;2024-02-04T07:25:51;9.50;99.90
22940;DHT22;11636;52.086;5.090;2024-02-04T07:28:18;9.60;99.90
22940;DHT22;11636;52.086;5.090;2024-02-04T07:30:51;9.60;99.90
22940;DHT22;11636;52.086;5.090;2024-02-04T07:33:18;9.60;99.90
22940;DHT22;11636;52.086;5.090;2024-02-04T07:35:45;9.60;99.90
22940;DHT22;11636;52.086;5.090;2024-02-04T07:38:18;9.70;99.90
22940;DHT22;11636;52.086;5.090;2024-02-04T07:40:45;9.70;99.90
22940;DHT22;11636;52.086;5.090;2024-02-04T07:43:18;9.60;99.90
22940;DHT22;11636;52.086;5.090;2024-02-04T07:45:45;9.60;99.90
22940;DHT22;11636;52.086;5.090;2024-02-04T07:48:18;9.60;99.90
22940;DHT22;11636;52.086;5.090;2024-02-04T07:50:46;9.70;99.90
22940;DHT22;11636;52.086;5.090;2024-02-04T07:53:20;9.70;99.90
22940;DHT22;11636;52.086;5.090;2024-02-04T07:55:55;9.70;99.90
22940;DHT22;11636;52.086;5.090;2024-02-04T07:58:22;9.70;99.90
22940;DHT22;11636;52.086;5.090;2024-02-04T08:00:55;9.70;99.90
22940;DHT22;11636;52.086;5.090;2024-02-04T08:03:29;9.70;99.90
22940;DHT22;11636;52.086;5.090;2024-02-04T08:05:56;9.70;99.90
22940;DHT22;11636;52.086;5.090;2024-02-04T08:08:29;9.70;99.90
22940;DHT22;11636;52.086;5.090;2024-02-04T08:10:56;9.60;99.90
22940;DHT22;11636;52.086;5.090;2024-02-04T08:13:27;9.60;99.90
22940;DHT22;11636;52.086;5.090;2024-02-04T08:16:00;9.60;99.90
22940;DHT22;11636;52.086;5.090;2024-02-04T08:18:27;9.50;99.90
22940;DHT22;11636;52.086;5.090;2024-02-04T08:20:54;9.50;99.90
22940;DHT22;11636;52.086;5.090;2024-02-04T08:23:27;9.50;99.90
22940;DHT22;11636;52.086;5.090;2024-02-04T08:25:54;9.40;99.90
22940;DHT22;11636;52.086;5.090;2024-02-04T08:28:27;9.40;99.90
22940;DHT22;11636;52.086;5.090;2024-02-04T08:31:00;9.40;99.90
22940;DHT22;11636;52.086;5.090;2024-02-04T08:33:33;9.50;99.90
22940;DHT22;11636;52.086;5.090;2024-02-04T08:36:00;9.40;99.90
22940;DHT22;11636;52.086;5.090;2024-02-04T08:38:34;9.50;99.90
22940;DHT22;11636;52.086;5.090;2024-02-04T08:41:01;9.60;99.90
22940;DHT22;11636;52.086;5.090;2024-02-04T08:43:34;9.60;99.90
22940;DHT22;11636;52.086;5.090;2024-02-04T08:46:01;9.70;99.90
22940;DHT22;11636;52.086;5.090;2024-02-04T08:48:40;9.70;99.90
22940;DHT22;11636;52.086;5.090;2024-02-04T08:51:13;9.80;99.90
22940;DHT22;11636;52.086;5.090;2024-02-04T08:53:49;9.80;99.90
22940;DHT22;11636;52.086;5.090;2024-02-04T08:56:22;9.90;99.90
22940;DHT22;11636;52.086;5.090;2024-02-04T08:58:49;9.90;99.90
22940;DHT22;11636;52.086;5.090;2024-02-04T09:01:22;9.90;99.90
22940;DHT22;11636;52.086;5.090;2024-02-04T09:03:49;10.00;99.90
22940;DHT22;11636;52.086;5.090;2024-02-04T09:06:22;10.00;99.90
22940;DHT22;11636;52.086;5.090;2024-02-04T09:08:49;10.00;99.90
22940;DHT22;11636;52.086;5.090;2024-02-04T09:11:22;10.00;99.90
22940;DHT22;11636;52.086;5.090;2024-02-04T09:13:57;10.10;99.90
22940;DHT22;11636;52.086;5.090;2024-02-04T09:16:30;10.10;99.90
22940;DHT22;11636;52.086;5.090;2024-02-04T09:18:57;10.10;99.90
22940;DHT22;11636;52.086;5.090;2024-02-04T09:21:30;10.20;99.90
22940;DHT22;11636;52.086;5.090;2024-02-04T09:23:57;10.20;99.90
22940;DHT22;11636;52.086;5.090;2024-02-04T09:26:30;10.20;99.90
22940;DHT22;11636;52.086;5.090;2024-02-04T09:28:57;10.20;99.90
22940;DHT22;11636;52.086;5.090;2024-02-04T09:31:24;10.20;99.90
22940;DHT22;11636;52.086;5.090;2024-02-04T09:33:57;10.30;99.90
22940;DHT22;11636;52.086;5.090;2024-02-04T09:36:31;10.30;99.90
22940;DHT22;11636;52.086;5.090;2024-02-04T09:38:59;10.30;99.90
22940;DHT22;11636;52.086;5.090;2024-02-04T09:41:32;10.40;99.90
22940;DHT22;11636;52.086;5.090;2024-02-04T09:43:59;10.40;99.90
22940;DHT22;11636;52.086;5.090;2024-02-04T09:46:34;10.50;99.90
22940;DHT22;11636;52.086;5.090;2024-02-04T09:49:09;10.50;99.90
22940;DHT22;11636;52.086;5.090;2024-02-04T09:51:36;10.50;99.90
22940;DHT22;11636;52.086;5.090;2024-02-04T09:54:11;10.50;99.90
22940;DHT22;11636;52.086;5.090;2024-02-04T09:56:38;10.60;99.90
22940;DHT22;11636;52.086;5.090;2024-02-04T09:59:07;10.60;99.90
22940;DHT22;11636;52.086;5.090;2024-02-04T10:01:41;10.60;99.90
22940;DHT22;11636;52.086;5.090;2024-02-04T10:04:08;10.70;99.90
22940;DHT22;11636;52.086;5.090;2024-02-04T10:06:42;10.70;99.90
22940;DHT22;11636;52.086;5.090;2024-02-04T10:09:10;10.70;99.90
22940;DHT22;11636;52.086;5.090;2024-02-04T10:11:37;10.70;99.90
22940;DHT22;11636;52.086;5.090;2024-02-04T10:14:10;10.70;99.90
22940;DHT22;11636;52.086;5.090;2024-02-04T10:16:37;10.70;99.90
22940;DHT22;11636;52.086;5.090;2024-02-04T10:19:04;10.70;99.90
22940;DHT22;11636;52.086;5.090;2024-02-04T10:21:37;10.80;99.90
22940;DHT22;11636;52.086;5.090;2024-02-04T10:24:11;10.80;99.90
22940;DHT22;11636;52.086;5.090;2024-02-04T10:26:44;10.90;99.90
22940;DHT22;11636;52.086;5.090;2024-02-04T10:29:13;10.90;99.90
22940;DHT22;11636;52.086;5.090;2024-02-04T10:31:46;11.00;99.90
22940;DHT22;11636;52.086;5.090;2024-02-04T10:34:20;11.10;99.90
22940;DHT22;11636;52.086;5.090;2024-02-04T10:36:46;11.00;99.90
22940;DHT22;11636;52.086;5.090;2024-02-04T10:39:19;11.00;99.90
22940;DHT22;11636;52.086;5.090;2024-02-04T10:41:55;11.10;99.90
22940;DHT22;11636;52.086;5.090;2024-02-04T10:44:35;11.00;99.90
22940;DHT22;11636;52.086;5.090;2024-02-04T10:47:10;11.00;99.90
22940;DHT22;11636;52.086;5.090;2024-02-04T10:49:51;11.00;99.90
22940;DHT22;11636;52.086;5.090;2024-02-04T10:52:37;11.00;99.90
22940;DHT22;11636;52.086;5.090;2024-02-04T10:55:09;10.90;99.90
22940;DHT22;11636;52.086;5.090;2024-02-04T10:57:44;10.70;99.90
22940;DHT22;11636;52.086;5.090;2024-02-04T11:00:18;10.60;99.90
22940;DHT22;11636;52.086;5.090;2024-02-04T11:02:54;10.50;99.90
22940;DHT22;11636;52.086;5.090;2024-02-04T11:05:23;10.40;99.90
22940;DHT22;11636;52.086;5.090;2024-02-04T11:07:57;10.40;99.90
22940;DHT22;11636;52.086;5.090;2024-02-04T11:10:28;10.40;99.90
22940;DHT22;11636;52.086;5.090;2024-02-04T11:13:02;10.30;99.90
22940;DHT22;11636;52.086;5.090;2024-02-04T11:15:37;10.30;99.90
22940;DHT22;11636;52.086;5.090;2024-02-04T11:18:40;10.30;99.90
22940;DHT22;11636;52.086;5.090;2024-02-04T11:26:54;10.20;99.90
22940;DHT22;11636;52.086;5.090;2024-02-04T11:29:28;10.20;99.90
22940;DHT22;11636;52.086;5.090;2024-02-04T11:32:03;10.20;99.90
22940;DHT22;11636;52.086;5.090;2024-02-04T11:34:30;10.20;99.90
22940;DHT22;11636;52.086;5.090;2024-02-04T11:37:17;10.30;99.90
22940;DHT22;11636;52.086;5.090;2024-02-04T11:39:53;10.30;99.90
22940;DHT22;11636;52.086;5.090;2024-02-04T11:42:32;10.30;99.90
22940;DHT22;11636;52.086;5.090;2024-02-04T11:45:11;10.30;99.90
22940;DHT22;11636;52.086;5.090;2024-02-04T11:47:45;10.30;99.90
22940;DHT22;11636;52.086;5.090;2024-02-04T11:50:12;10.30;99.90
22940;DHT22;11636;52.086;5.090;2024-02-04T11:52:40;10.30;99.90
22940;DHT22;11636;52.086;5.090;2024-02-04T11:55:15;10.30;99.90
22940;DHT22;11636;52.086;5.090;2024-02-04T11:57:49;10.40;99.90
22940;DHT22;11636;52.086;5.090;2024-02-04T12:00:16;10.40;99.90
22940;DHT22;11636;52.086;5.090;2024-02-04T12:03:00;10.40;99.90
22940;DHT22;11636;52.086;5.090;2024-02-04T12:05:35;10.50;99.90
22940;DHT22;11636;52.086;5.090;2024-02-04T12:08:17;10.50;99.90
22940;DHT22;11636;52.086;5.090;2024-02-04T12:10:51;10.60;99.90
22940;DHT22;11636;52.086;5.090;2024-02-04T12:13:25;10.60;99.90
22940;DHT22;11636;52.086;5.090;2024-02-04T12:15:59;10.70;99.90
22940;DHT22;11636;52.086;5.090;2024-02-04T12:18:32;10.60;99.90
22940;DHT22;11636;52.086;5.090;2024-02-04T12:20:59;10.70;99.90
22940;DHT22;11636;52.086;5.090;2024-02-04T12:23:32;10.70;99.90
22940;DHT22;11636;52.086;5.090;2024-02-04T12:26:00;10.70;99.90
22940;DHT22;11636;52.086;5.090;2024-02-04T12:28:27;10.70;99.90
22940;DHT22;11636;52.086;5.090;2024-02-04T12:31:00;10.70;99.90
22940;DHT22;11636;52.086;5.090;2024-02-04T12:33:27;10.70;99.90
22940;DHT22;11636;52.086;5.090;2024-02-04T12:36:01;10.70;99.90
22940;DHT22;11636;52.086;5.090;2024-02-04T12:38:28;10.70;99.90
22940;DHT22;11636;52.086;5.090;2024-02-04T12:41:01;10.70;99.90
22940;DHT22;11636;52.086;5.090;2024-02-04T12:43:35;10.70;99.90
22940;DHT22;11636;52.086;5.090;2024-02-04T12:46:10;10.70;99.90
22940;DHT22;11636;52.086;5.090;2024-02-04T12:48:43;10.70;99.90
22940;DHT22;11636;52.086;5.090;2024-02-04T12:51:10;10.70;99.90
22940;DHT22;11636;52.086;5.090;2024-02-04T12:53:43;10.70;99.90
22940;DHT22;11636;52.086;5.090;2024-02-04T12:56:11;10.80;99.90
22940;DHT22;11636;52.086;5.090;2024-02-04T12:58:45;10.90;99.90
22940;DHT22;11636;52.086;5.090;2024-02-04T13:01:12;11.00;99.90
22940;DHT22;11636;52.086;5.090;2024-02-04T13:03:46;11.00;99.90
22940;DHT22;11636;52.086;5.090;2024-02-04T13:06:17;11.00;99.90
22940;DHT22;11636;52.086;5.090;2024-02-04T13:08:54;11.10;99.90
22940;DHT22;11636;52.086;5.090;2024-02-04T13:11:24;11.10;99.90
22940;DHT22;11636;52.086;5.090;2024-02-04T13:13:58;11.10;99.90
22940;DHT22;11636;52.086;5.090;2024-02-04T13:16:25;11.10;99.90
22940;DHT22;11636;52.086;5.090;2024-02-04T13:19:00;11.10;99.90
22940;DHT22;11636;52.086;5.090;2024-02-04T13:21:26;11.10;99.90
22940;DHT22;11636;52.086;5.090;2024-02-04T13:24:00;11.00;99.90
22940;DHT22;11636;52.086;5.090;2024-02-04T13:26:27;11.00;99.90
22940;DHT22;11636;52.086;5.090;2024-02-04T13:28:53;10.90;99.90
22940;DHT22;11636;52.086;5.090;2024-02-04T13:31:27;10.90;99.90
22940;DHT22;11636;52.086;5.090;2024-02-04T13:33:55;10.90;99.90
22940;DHT22;11636;52.086;5.090;2024-02-04T13:36:29;10.90;99.90
22940;DHT22;11636;52.086;5.090;2024-02-04T13:38:55;10.80;99.90
22940;DHT22;11636;52.086;5.090;2024-02-04T13:41:29;10.80;99.90
22940;DHT22;11636;52.086;5.090;2024-02-04T13:44:02;10.80;99.90
22940;DHT22;11636;52.086;5.090;2024-02-04T13:46:36;10.80;99.90
22940;DHT22;11636;52.086;5.090;2024-02-04T13:49:03;10.70;99.90
22940;DHT22;11636;52.086;5.090;2024-02-04T13:51:30;10.70;99.90
22940;DHT22;11636;52.086;5.090;2024-02-04T13:54:11;10.70;99.90
22940;DHT22;11636;52.086;5.090;2024-02-04T13:56:44;10.80;99.90
22940;DHT22;11636;52.086;5.090;2024-02-04T13:59:17;10.80;99.90
22940;DHT22;11636;52.086;5.090;2024-02-04T14:01:44;10.90;99.90
22940;DHT22;11636;52.086;5.090;2024-02-04T14:04:18;10.90;99.90
22940;DHT22;11636;52.086;5.090;2024-02-04T14:06:45;10.90;99.90
22940;DHT22;11636;52.086;5.090;2024-02-04T14:09:12;10.90;99.90
22940;DHT22;11636;52.086;5.090;2024-02-04T14:11:48;10.90;99.90
22940;DHT22;11636;52.086;5.090;2024-02-04T14:14:15;10.90;99.90
22940;DHT22;11636;52.086;5.090;2024-02-04T14:16:49;10.90;99.90
22940;DHT22;11636;52.086;5.090;2024-02-04T14:19:16;10.90;99.90
22940;DHT22;11636;52.086;5.090;2024-02-04T14:21:50;10.90;99.90
22940;DHT22;11636;52.086;5.090;2024-02-04T14:24:17;11.00;99.90
22940;DHT22;11636;52.086;5.090;2024-02-04T14:26:56;11.00;99.90
22940;DHT22;11636;52.086;5.090;2024-02-04T14:29:24;11.00;99.90
22940;DHT22;11636;52.086;5.090;2024-02-04T14:31:59;11.00;99.90
22940;DHT22;11636;52.086;5.090;2024-02-04T14:34:26;11.10;99.90
22940;DHT22;11636;52.086;5.090;2024-02-04T14:36:54;11.00;99.90
22940;DHT22;11636;52.086;5.090;2024-02-04T14:39:28;11.00;99.90
22940;DHT22;11636;52.086;5.090;2024-02-04T14:42:04;11.00;99.90
22940;DHT22;11636;52.086;5.090;2024-02-04T14:44:38;11.10;99.90
22940;DHT22;11636;52.086;5.090;2024-02-04T14:47:04;11.10;99.90
22940;DHT22;11636;52.086;5.090;2024-02-04T14:49:32;11.00;99.90
22940;DHT22;11636;52.086;5.090;2024-02-04T14:52:06;11.10;99.90
22940;DHT22;11636;52.086;5.090;2024-02-04T14:54:39;11.10;99.90
22940;DHT22;11636;52.086;5.090;2024-02-04T14:57:06;11.10;99.90
22940;DHT22;11636;52.086;5.090;2024-02-04T14:59:40;11.10;99.90
22940;DHT22;11636;52.086;5.090;2024-02-04T15:02:07;11.10;99.90
22940;DHT22;11636;52.086;5.090;2024-02-04T15:04:41;11.10;99.90
22940;DHT22;11636;52.086;5.090;2024-02-04T15:07:15;11.10;99.90
22940;DHT22;11636;52.086;5.090;2024-02-04T15:09:42;11.10;99.90
22940;DHT22;11636;52.086;5.090;2024-02-04T15:12:09;11.10;99.90
22940;DHT22;11636;52.086;5.090;2024-02-04T15:14:43;11.10;99.90
22940;DHT22;11636;52.086;5.090;2024-02-04T15:17:10;11.10;99.90
22940;DHT22;11636;52.086;5.090;2024-02-04T15:19:44;11.10;99.90
22940;DHT22;11636;52.086;5.090;2024-02-04T15:22:18;11.10;99.90
22940;DHT22;11636;52.086;5.090;2024-02-04T15:24:45;11.10;99.90
22940;DHT22;11636;52.086;5.090;2024-02-04T15:27:19;11.10;99.90
22940;DHT22;11636;52.086;5.090;2024-02-04T15:29:47;11.10;99.90
22940;DHT22;11636;52.086;5.090;2024-02-04T15:32:28;11.10;99.90
22940;DHT22;11636;52.086;5.090;2024-02-04T15:34:55;11.10;99.90
22940;DHT22;11636;52.086;5.090;2024-02-04T15:37:29;11.20;99.90
22940;DHT22;11636;52.086;5.090;2024-02-04T15:39:56;11.20;99.90
22940;DHT22;11636;52.086;5.090;2024-02-04T15:42:23;11.20;99.90
22940;DHT22;11636;52.086;5.090;2024-02-04T15:44:57;11.20;99.90
22940;DHT22;11636;52.086;5.090;2024-02-04T15:47:30;11.20;99.90
22940;DHT22;11636;52.086;5.090;2024-02-04T15:50:00;11.20;99.90
22940;DHT22;11636;52.086;5.090;2024-02-04T15:52:27;11.20;99.90
22940;DHT22;11636;52.086;5.090;2024-02-04T15:55:04;11.20;99.90
22940;DHT22;11636;52.086;5.090;2024-02-04T15:57:33;11.20;99.90
22940;DHT22;11636;52.086;5.090;2024-02-04T16:00:04;11.20;99.90
22940;DHT22;11636;52.086;5.090;2024-02-04T16:02:58;11.10;99.90
22940;DHT22;11636;52.086;5.090;2024-02-04T16:05:32;11.10;99.90
22940;DHT22;11636;52.086;5.090;2024-02-04T16:08:02;11.10;99.90
22940;DHT22;11636;52.086;5.090;2024-02-04T16:10:36;11.10;99.90
22940;DHT22;11636;52.086;5.090;2024-02-04T16:13:11;11.00;99.90
22940;DHT22;11636;52.086;5.090;2024-02-04T16:15:40;11.10;99.90
22940;DHT22;11636;52.086;5.090;2024-02-04T16:18:18;11.00;99.90